sensor_id;sensor_type;location;lat;lon;timestamp;pressure;altitude;pressure_sealevel;temperature;humidity
70458;BME280;57919;56.194;95.716;2024-01-30T00:04:04;100884.97;;;-20.97;56.91
70458;BME280;57919;56.194;95.716;2024-01-30T00:14:06;100882.78;;;-20.91;56.28
70458;BME280;57919;56.194;95.716;2024-01-30T00:24:08;100919.88;;;-21.14;56.32
70458;BME280;57919;56.194;95.716;2024-01-30T00:34:09;100920.91;;;-21.25;56.12
70458;BME280;57919;56.194;95.716;2024-01-30T00:44:12;100920.31;;;-21.47;55.81
70458;BME280;57919;56.194;95.716;2024-01-30T00:54:13;100922.78;;;-21.49;55.86
70458;BME280;57919;56.194;95.716;2024-01-30T01:04:16;100917.00;;;-21.71;56.10
70458;BME280;57919;56.194;95.716;2024-01-30T01:14:19;100920.75;;;-21.79;56.02
70458;BME280;57919;56.194;95.716;2024-01-30T01:24:20;100932.34;;;-22.11;56.23
70458;BME280;57919;56.194;95.716;2024-01-30T01:34:22;100942.38;;;-22.14;56.71
70458;BME280;57919;56.194;95.716;2024-01-30T01:44:25;100933.31;;;-22.09;56.50
70458;BME280;57919;56.194;95.716;2024-01-30T01:54:27;100935.06;;;-22.21;56.41
70458;BME280;57919;56.194;95.716;2024-01-30T02:04:30;100954.53;;;-22.36;57.31
70458;BME280;57919;56.194;95.716;2024-01-30T02:14:32;100956.16;;;-22.62;58.42
70458;BME280;57919;56.194;95.716;2024-01-30T02:24:36;100960.91;;;-22.79;59.61
70458;BME280;57919;56.194;95.716;2024-01-30T02:34:37;100967.09;;;-22.76;59.79
70458;BME280;57919;56.194;95.716;2024-01-30T02:44:39;100977.19;;;-22.54;59.81
70458;BME280;57919;56.194;95.716;2024-01-30T02:54:41;100966.88;;;-22.06;59.19
70458;BME280;57919;56.194;95.716;2024-01-30T03:04:43;100966.75;;;-21.82;58.91
70458;BME280;57919;56.194;95.716;2024-01-30T03:14:45;100968.59;;;-21.15;57.30
70458;BME280;57919;56.194;95.716;2024-01-30T03:24:47;100977.81;;;-20.10;55.97
70458;BME280;57919;56.194;95.716;2024-01-30T03:34:49;100980.13;;;-20.28;55.08
70458;BME280;57919;56.194;95.716;2024-01-30T03:44:52;100985.06;;;-19.90;55.02
70458;BME280;57919;56.194;95.716;2024-01-30T03:54:54;100990.34;;;-19.44;53.86
70458;BME280;57919;56.194;95.716;2024-01-30T04:04:56;100995.50;;;-19.44;53.03
70458;BME280;57919;56.194;95.716;2024-01-30T04:14:59;100988.06;;;-18.17;53.57
70458;BME280;57919;56.194;95.716;2024-01-30T04:25:01;100984.47;;;-17.72;52.72
70458;BME280;57919;56.194;95.716;2024-01-30T04:35:05;100986.22;;;-17.21;52.75
70458;BME280;57919;56.194;95.716;2024-01-30T04:45:07;100977.69;;;-16.66;52.32
70458;BME280;57919;56.194;95.716;2024-01-30T04:55:09;100977.63;;;-15.94;51.35
70458;BME280;57919;56.194;95.716;2024-01-30T05:05:11;100981.63;;;-16.20;51.42
70458;BME280;57919;56.194;95.716;2024-01-30T05:15:13;100977.34;;;-16.37;51.54
70458;BME280;57919;56.194;95.716;2024-01-30T05:25:15;100974.91;;;-16.34;51.41
70458;BME280;57919;56.194;95.716;2024-01-30T05:35:16;100970.44;;;-16.74;50.92
70458;BME280;57919;56.194;95.716;2024-01-30T05:45:18;100969.31;;;-17.14;51.22
70458;BME280;57919;56.194;95.716;2024-01-30T05:55:20;100955.75;;;-17.60;52.33
70458;BME280;57919;56.194;95.716;2024-01-30T06:05:22;100973.22;;;-17.22;52.89
70458;BME280;57919;56.194;95.716;2024-01-30T06:15:25;100962.28;;;-17.17;53.15
70458;BME280;57919;56.194;95.716;2024-01-30T06:25:27;100941.91;;;-16.93;52.60
70458;BME280;57919;56.194;95.716;2024-01-30T06:35:30;100962.84;;;-16.71;52.66
70458;BME280;57919;56.194;95.716;2024-01-30T06:45:33;100959.34;;;-16.89;52.71
70458;BME280;57919;56.194;95.716;2024-01-30T06:55:36;100956.94;;;-16.49;52.28
70458;BME280;57919;56.194;95.716;2024-01-30T07:05:37;100965.88;;;-16.24;52.09
70458;BME280;57919;56.194;95.716;2024-01-30T07:15:40;100963.88;;;-16.30;52.23
70458;BME280;57919;56.194;95.716;2024-01-30T07:25:42;100972.38;;;-16.32;51.92
70458;BME280;57919;56.194;95.716;2024-01-30T07:35:45;100972.94;;;-16.57;52.53
70458;BME280;57919;56.194;95.716;2024-01-30T07:45:47;100971.44;;;-16.52;52.62
70458;BME280;57919;56.194;95.716;2024-01-30T07:55:49;100970.94;;;-16.45;53.01
70458;BME280;57919;56.194;95.716;2024-01-30T08:05:51;100968.13;;;-16.50;52.42
70458;BME280;57919;56.194;95.716;2024-01-30T08:15:54;100973.06;;;-16.54;52.32
70458;BME280;57919;56.194;95.716;2024-01-30T08:25:56;100983.47;;;-16.72;53.08
70458;BME280;57919;56.194;95.716;2024-01-30T08:35:58;100971.47;;;-17.06;52.26
70458;BME280;57919;56.194;95.716;2024-01-30T08:46:00;100990.41;;;-17.23;52.75
70458;BME280;57919;56.194;95.716;2024-01-30T08:56:03;101002.50;;;-17.56;52.78
70458;BME280;57919;56.194;95.716;2024-01-30T09:06:08;100992.25;;;-17.54;53.44
70458;BME280;57919;56.194;95.716;2024-01-30T09:16:11;101011.53;;;-17.48;52.92
70458;BME280;57919;56.194;95.716;2024-01-30T09:26:13;101008.97;;;-17.64;53.17
70458;BME280;57919;56.194;95.716;2024-01-30T09:36:15;101003.41;;;-18.04;52.71
70458;BME280;57919;56.194;95.716;2024-01-30T09:46:21;101021.16;;;-18.10;53.61
70458;BME280;57919;56.194;95.716;2024-01-30T09:56:28;101007.47;;;-18.71;53.34
70458;BME280;57919;56.194;95.716;2024-01-30T10:06:30;101038.44;;;-18.71;53.96
70458;BME280;57919;56.194;95.716;2024-01-30T10:16:35;101039.88;;;-19.06;52.56
70458;BME280;57919;56.194;95.716;2024-01-30T10:26:38;101050.31;;;-19.47;53.26
70458;BME280;57919;56.194;95.716;2024-01-30T10:36:40;101044.63;;;-19.41;53.83
70458;BME280;57919;56.194;95.716;2024-01-30T10:46:50;101051.81;;;-19.50;53.79
70458;BME280;57919;56.194;95.716;2024-01-30T10:56:53;101046.03;;;-19.61;53.60
70458;BME280;57919;56.194;95.716;2024-01-30T11:06:55;101053.03;;;-19.73;53.39
70458;BME280;57919;56.194;95.716;2024-01-30T11:16:58;101053.34;;;-19.82;53.60
70458;BME280;57919;56.194;95.716;2024-01-30T11:27:01;101064.25;;;-19.86;54.31
70458;BME280;57919;56.194;95.716;2024-01-30T11:37:09;101064.19;;;-20.01;54.22
70458;BME280;57919;56.194;95.716;2024-01-30T11:47:14;101054.53;;;-20.18;53.70
70458;BME280;57919;56.194;95.716;2024-01-30T11:57:17;101060.69;;;-20.29;53.91
70458;BME280;57919;56.194;95.716;2024-01-30T12:07:19;101050.25;;;-20.45;54.79
70458;BME280;57919;56.194;95.716;2024-01-30T12:17:31;101056.59;;;-20.80;54.27
70458;BME280;57919;56.194;95.716;2024-01-30T12:27:33;101054.09;;;-21.05;54.53
70458;BME280;57919;56.194;95.716;2024-01-30T12:37:35;101050.09;;;-21.39;54.25
70458;BME280;57919;56.194;95.716;2024-01-30T12:47:38;101068.28;;;-21.61;55.02
70458;BME280;57919;56.194;95.716;2024-01-30T12:57:40;101059.72;;;-21.98;54.87
70458;BME280;57919;56.194;95.716;2024-01-30T13:07:42;101057.59;;;-22.17;54.46
70458;BME280;57919;56.194;95.716;2024-01-30T13:17:44;101054.63;;;-22.46;55.26
70458;BME280;57919;56.194;95.716;2024-01-30T13:27:49;101049.03;;;-22.89;55.51
70458;BME280;57919;56.194;95.716;2024-01-30T13:37:50;101048.69;;;-22.82;55.52
70458;BME280;57919;56.194;95.716;2024-01-30T13:47:52;101051.13;;;-22.83;55.63
70458;BME280;57919;56.194;95.716;2024-01-30T13:57:54;101064.84;;;-22.95;55.30
70458;BME280;57919;56.194;95.716;2024-01-30T14:07:58;101056.69;;;-23.12;55.56
70458;BME280;57919;56.194;95.716;2024-01-30T14:18:01;101064.44;;;-23.34;55.35
70458;BME280;57919;56.194;95.716;2024-01-30T14:28:04;101060.63;;;-23.51;55.88
70458;BME280;57919;56.194;95.716;2024-01-30T14:38:06;101056.81;;;-23.68;55.93
70458;BME280;57919;56.194;95.716;2024-01-30T14:48:09;101070.13;;;-23.83;55.88
70458;BME280;57919;56.194;95.716;2024-01-30T14:58:11;101063.59;;;-24.02;55.72
70458;BME280;57919;56.194;95.716;2024-01-30T15:08:13;101063.53;;;-24.13;56.47
70458;BME280;57919;56.194;95.716;2024-01-30T15:18:15;101056.81;;;-24.23;56.15
70458;BME280;57919;56.194;95.716;2024-01-30T15:28:17;101036.16;;;-24.26;56.09
70458;BME280;57919;56.194;95.716;2024-01-30T15:38:20;101056.91;;;-24.33;55.58
70458;BME280;57919;56.194;95.716;2024-01-30T15:48:22;101058.50;;;-24.45;55.56
70458;BME280;57919;56.194;95.716;2024-01-30T15:58:24;101051.94;;;-24.64;55.41
70458;BME280;57919;56.194;95.716;2024-01-30T16:08:26;101049.19;;;-24.87;55.48
70458;BME280;57919;56.194;95.716;2024-01-30T16:18:28;101016.03;;;-25.29;55.58
70458;BME280;57919;56.194;95.716;2024-01-30T16:28:32;101058.28;;;-25.43;55.51
70458;BME280;57919;56.194;95.716;2024-01-30T16:38:37;101059.19;;;-25.63;55.69
70458;BME280;57919;56.194;95.716;2024-01-30T16:48:39;101079.34;;;-25.76;55.62
70458;BME280;57919;56.194;95.716;2024-01-30T16:58:41;101075.63;;;-26.10;55.99
70458;BME280;57919;56.194;95.716;2024-01-30T17:08:43;101070.88;;;-26.15;55.89
70458;BME280;57919;56.194;95.716;2024-01-30T17:18:45;101071.66;;;-26.16;56.05
70458;BME280;57919;56.194;95.716;2024-01-30T17:28:47;101064.66;;;-26.09;55.90
70458;BME280;57919;56.194;95.716;2024-01-30T17:38:48;101073.22;;;-25.98;56.00
70458;BME280;57919;56.194;95.716;2024-01-30T17:48:51;101066.56;;;-26.16;56.07
70458;BME280;57919;56.194;95.716;2024-01-30T17:58:53;101060.06;;;-26.33;56.10
70458;BME280;57919;56.194;95.716;2024-01-30T18:08:54;101072.09;;;-26.80;55.73
70458;BME280;57919;56.194;95.716;2024-01-30T18:18:57;101067.09;;;-27.17;56.83
70458;BME280;57919;56.194;95.716;2024-01-30T18:28:58;101068.41;;;-27.12;56.80
70458;BME280;57919;56.194;95.716;2024-01-30T18:39:01;101073.16;;;-27.07;56.60
70458;BME280;57919;56.194;95.716;2024-01-30T18:49:02;101085.38;;;-27.03;56.55
70458;BME280;57919;56.194;95.716;2024-01-30T18:59:04;101073.06;;;-26.98;56.34
70458;BME280;57919;56.194;95.716;2024-01-30T19:09:06;101084.91;;;-26.99;56.15
70458;BME280;57919;56.194;95.716;2024-01-30T19:19:10;101078.25;;;-27.44;56.21
70458;BME280;57919;56.194;95.716;2024-01-30T19:29:11;101088.59;;;-27.89;56.28
70458;BME280;57919;56.194;95.716;2024-01-30T19:39:13;101082.25;;;-28.03;56.56
70458;BME280;57919;56.194;95.716;2024-01-30T19:49:15;101086.28;;;-27.77;56.72
70458;BME280;57919;56.194;95.716;2024-01-30T19:59:17;101086.56;;;-27.55;56.48
70458;BME280;57919;56.194;95.716;2024-01-30T20:09:19;101075.50;;;-27.56;56.29
70458;BME280;57919;56.194;95.716;2024-01-30T20:19:21;101079.00;;;-27.45;56.22
70458;BME280;57919;56.194;95.716;2024-01-30T20:29:23;101080.94;;;-27.43;56.08
70458;BME280;57919;56.194;95.716;2024-01-30T20:39:26;101074.00;;;-27.73;55.80
70458;BME280;57919;56.194;95.716;2024-01-30T20:49:28;101042.09;;;-28.34;55.74
70458;BME280;57919;56.194;95.716;2024-01-30T20:59:30;101058.97;;;-28.35;56.27
70458;BME280;57919;56.194;95.716;2024-01-30T21:09:32;101062.91;;;-28.19;56.43
70458;BME280;57919;56.194;95.716;2024-01-30T21:19:35;101046.56;;;-28.32;56.08
70458;BME280;57919;56.194;95.716;2024-01-30T21:29:37;101061.00;;;-28.22;56.11
70458;BME280;57919;56.194;95.716;2024-01-30T21:39:40;101055.84;;;-28.32;55.87
70458;BME280;57919;56.194;95.716;2024-01-30T21:49:42;101072.94;;;-28.57;55.29
70458;BME280;57919;56.194;95.716;2024-01-30T21:59:44;101066.13;;;-28.75;55.53
70458;BME280;57919;56.194;95.716;2024-01-30T22:09:46;101074.63;;;-28.75;55.68
70458;BME280;57919;56.194;95.716;2024-01-30T22:19:49;101064.78;;;-28.72;55.75
70458;BME280;57919;56.194;95.716;2024-01-30T22:29:51;101075.47;;;-28.57;55.94
70458;BME280;57919;56.194;95.716;2024-01-30T22:39:53;101066.78;;;-28.42;55.87
70458;BME280;57919;56.194;95.716;2024-01-30T22:49:55;101056.78;;;-28.49;55.79
70458;BME280;57919;56.194;95.716;2024-01-30T22:59:57;101067.41;;;-28.53;55.93
70458;BME280;57919;56.194;95.716;2024-01-30T23:09:59;101054.75;;;-28.62;56.04
70458;BME280;57919;56.194;95.716;2024-01-30T23:20:01;101055.38;;;-28.73;55.72
70458;BME280;57919;56.194;95.716;2024-01-30T23:30:05;101064.94;;;-28.79;55.65
70458;BME280;57919;56.194;95.716;2024-01-30T23:40:12;101062.00;;;-28.83;55.94
70458;BME280;57919;56.194;95.716;2024-01-30T23:50:14;101048.59;;;-28.91;55.98
